sensor_id;sensor_type;location;lat;lon;timestamp;P1;durP1;ratioP1;P2;durP2;ratioP2
18265;SDS011;9259;48.194;16.322;2023-03-14T00:01:31;15.53;;;3.90;;
18265;SDS011;9259;48.194;16.322;2023-03-14T00:03:59;11.00;;;4.13;;
18265;SDS011;9259;48.194;16.322;2023-03-14T00:06:26;6.20;;;3.20;;
18265;SDS011;9259;48.194;16.322;2023-03-14T00:08:54;8.73;;;3.83;;
18265;SDS011;9259;48.194;16.322;2023-03-14T00:11:22;11.17;;;4.20;;
18265;SDS011;9259;48.194;16.322;2023-03-14T00:13:51;9.37;;;4.00;;
18265;SDS011;9259;48.194;16.322;2023-03-14T00:16:21;10.40;;;3.60;;
18265;SDS011;9259;48.194;16.322;2023-03-14T00:18:49;7.67;;;3.27;;
18265;SDS011;9259;48.194;16.322;2023-03-14T00:21:17;10.83;;;3.93;;
18265;SDS011;9259;48.194;16.322;2023-03-14T00:23:46;11.10;;;3.57;;
18265;SDS011;9259;48.194;16.322;2023-03-14T00:26:17;8.77;;;3.43;;
18265;SDS011;9259;48.194;16.322;2023-03-14T00:28:47;17.40;;;4.07;;
18265;SDS011;9259;48.194;16.322;2023-03-14T00:31:18;9.40;;;3.47;;
18265;SDS011;9259;48.194;16.322;2023-03-14T00:33:48;9.63;;;3.70;;
18265;SDS011;9259;48.194;16.322;2023-03-14T00:36:18;11.43;;;3.57;;
18265;SDS011;9259;48.194;16.322;2023-03-14T00:38:47;9.40;;;3.30;;
18265;SDS011;9259;48.194;16.322;2023-03-14T00:41:18;8.97;;;3.27;;
18265;SDS011;9259;48.194;16.322;2023-03-14T00:43:48;9.83;;;3.07;;
18265;SDS011;9259;48.194;16.322;2023-03-14T00:46:16;6.87;;;3.00;;
18265;SDS011;9259;48.194;16.322;2023-03-14T00:48:46;7.40;;;3.50;;
18265;SDS011;9259;48.194;16.322;2023-03-14T00:51:14;5.73;;;3.13;;
18265;SDS011;9259;48.194;16.322;2023-03-14T00:53:43;7.47;;;3.17;;
18265;SDS011;9259;48.194;16.322;2023-03-14T00:56:12;6.57;;;3.40;;
18265;SDS011;9259;48.194;16.322;2023-03-14T00:58:41;7.60;;;3.17;;
18265;SDS011;9259;48.194;16.322;2023-03-14T01:01:09;11.20;;;3.33;;
18265;SDS011;9259;48.194;16.322;2023-03-14T01:03:40;7.63;;;3.37;;
18265;SDS011;9259;48.194;16.322;2023-03-14T01:06:11;10.47;;;3.40;;
18265;SDS011;9259;48.194;16.322;2023-03-14T01:08:41;9.63;;;3.90;;
18265;SDS011;9259;48.194;16.322;2023-03-14T01:11:10;7.00;;;3.17;;
18265;SDS011;9259;48.194;16.322;2023-03-14T01:13:41;9.10;;;3.93;;
18265;SDS011;9259;48.194;16.322;2023-03-14T01:16:10;8.10;;;3.40;;
18265;SDS011;9259;48.194;16.322;2023-03-14T01:18:40;11.53;;;3.77;;
18265;SDS011;9259;48.194;16.322;2023-03-14T01:21:11;9.17;;;3.70;;
18265;SDS011;9259;48.194;16.322;2023-03-14T01:23:42;8.07;;;3.50;;
18265;SDS011;9259;48.194;16.322;2023-03-14T01:26:11;7.53;;;3.47;;
18265;SDS011;9259;48.194;16.322;2023-03-14T01:28:40;9.77;;;3.70;;
18265;SDS011;9259;48.194;16.322;2023-03-14T01:31:09;10.23;;;3.83;;
18265;SDS011;9259;48.194;16.322;2023-03-14T01:33:38;12.03;;;3.90;;
18265;SDS011;9259;48.194;16.322;2023-03-14T01:36:07;14.10;;;4.00;;
18265;SDS011;9259;48.194;16.322;2023-03-14T01:38:38;7.90;;;3.80;;
18265;SDS011;9259;48.194;16.322;2023-03-14T01:41:07;9.33;;;3.53;;
18265;SDS011;9259;48.194;16.322;2023-03-14T01:43:39;8.43;;;4.00;;
18265;SDS011;9259;48.194;16.322;2023-03-14T01:49:02;7.80;;;3.40;;
18265;SDS011;9259;48.194;16.322;2023-03-14T01:51:39;13.73;;;3.70;;
18265;SDS011;9259;48.194;16.322;2023-03-14T01:54:14;11.87;;;3.80;;
18265;SDS011;9259;48.194;16.322;2023-03-14T01:56:48;8.87;;;3.60;;
18265;SDS011;9259;48.194;16.322;2023-03-14T01:59:20;10.73;;;3.83;;
18265;SDS011;9259;48.194;16.322;2023-03-14T02:01:48;13.10;;;4.20;;
18265;SDS011;9259;48.194;16.322;2023-03-14T02:04:18;9.67;;;4.10;;
18265;SDS011;9259;48.194;16.322;2023-03-14T02:06:50;9.57;;;3.80;;
18265;SDS011;9259;48.194;16.322;2023-03-14T02:09:24;9.73;;;3.63;;
18265;SDS011;9259;48.194;16.322;2023-03-14T02:11:52;10.17;;;3.53;;
18265;SDS011;9259;48.194;16.322;2023-03-14T02:14:22;11.03;;;4.27;;
18265;SDS011;9259;48.194;16.322;2023-03-14T02:16:57;10.70;;;3.57;;
18265;SDS011;9259;48.194;16.322;2023-03-14T02:19:29;6.53;;;3.40;;
18265;SDS011;9259;48.194;16.322;2023-03-14T02:22:21;9.77;;;3.33;;
18265;SDS011;9259;48.194;16.322;2023-03-14T02:24:51;10.33;;;3.67;;
18265;SDS011;9259;48.194;16.322;2023-03-14T02:27:29;7.87;;;3.50;;
18265;SDS011;9259;48.194;16.322;2023-03-14T02:29:58;17.47;;;3.53;;
18265;SDS011;9259;48.194;16.322;2023-03-14T02:32:31;9.87;;;3.67;;
18265;SDS011;9259;48.194;16.322;2023-03-14T02:35:03;13.03;;;4.17;;
18265;SDS011;9259;48.194;16.322;2023-03-14T02:37:37;9.23;;;3.90;;
18265;SDS011;9259;48.194;16.322;2023-03-14T02:40:09;7.13;;;3.70;;
18265;SDS011;9259;48.194;16.322;2023-03-14T02:42:40;13.40;;;3.70;;
18265;SDS011;9259;48.194;16.322;2023-03-14T02:48:09;14.43;;;3.87;;
18265;SDS011;9259;48.194;16.322;2023-03-14T02:50:43;14.57;;;3.60;;
18265;SDS011;9259;48.194;16.322;2023-03-14T02:53:15;6.73;;;3.03;;
18265;SDS011;9259;48.194;16.322;2023-03-14T02:55:47;9.40;;;3.53;;
18265;SDS011;9259;48.194;16.322;2023-03-14T02:58:17;10.20;;;3.63;;
18265;SDS011;9259;48.194;16.322;2023-03-14T03:00:46;17.47;;;4.37;;
18265;SDS011;9259;48.194;16.322;2023-03-14T03:03:14;11.90;;;3.77;;
18265;SDS011;9259;48.194;16.322;2023-03-14T03:05:42;8.17;;;3.57;;
18265;SDS011;9259;48.194;16.322;2023-03-14T03:08:14;10.77;;;3.70;;
18265;SDS011;9259;48.194;16.322;2023-03-14T03:10:42;12.00;;;3.40;;
18265;SDS011;9259;48.194;16.322;2023-03-14T03:13:10;9.10;;;3.60;;
18265;SDS011;9259;48.194;16.322;2023-03-14T03:15:39;9.90;;;3.70;;
18265;SDS011;9259;48.194;16.322;2023-03-14T03:18:07;11.77;;;4.07;;
18265;SDS011;9259;48.194;16.322;2023-03-14T03:20:35;9.90;;;3.70;;
18265;SDS011;9259;48.194;16.322;2023-03-14T03:23:03;9.37;;;3.73;;
18265;SDS011;9259;48.194;16.322;2023-03-14T03:25:32;10.80;;;3.60;;
18265;SDS011;9259;48.194;16.322;2023-03-14T03:28:00;7.30;;;3.30;;
18265;SDS011;9259;48.194;16.322;2023-03-14T03:30:33;9.87;;;3.37;;
18265;SDS011;9259;48.194;16.322;2023-03-14T03:33:06;10.03;;;3.90;;
18265;SDS011;9259;48.194;16.322;2023-03-14T03:35:35;6.47;;;3.17;;
18265;SDS011;9259;48.194;16.322;2023-03-14T03:38:10;8.67;;;3.70;;
18265;SDS011;9259;48.194;16.322;2023-03-14T03:40:40;8.60;;;3.70;;
18265;SDS011;9259;48.194;16.322;2023-03-14T03:43:08;10.17;;;3.87;;
18265;SDS011;9259;48.194;16.322;2023-03-14T03:45:36;7.80;;;3.80;;
18265;SDS011;9259;48.194;16.322;2023-03-14T03:48:06;10.10;;;3.67;;
18265;SDS011;9259;48.194;16.322;2023-03-14T03:50:34;9.70;;;4.20;;
18265;SDS011;9259;48.194;16.322;2023-03-14T03:53:02;12.57;;;4.17;;
18265;SDS011;9259;48.194;16.322;2023-03-14T03:55:30;8.93;;;4.23;;
18265;SDS011;9259;48.194;16.322;2023-03-14T03:57:57;9.77;;;4.33;;
18265;SDS011;9259;48.194;16.322;2023-03-14T04:00:25;9.00;;;3.53;;
18265;SDS011;9259;48.194;16.322;2023-03-14T04:02:55;10.67;;;4.03;;
18265;SDS011;9259;48.194;16.322;2023-03-14T04:05:23;10.00;;;4.20;;
18265;SDS011;9259;48.194;16.322;2023-03-14T04:07:50;10.30;;;4.40;;
18265;SDS011;9259;48.194;16.322;2023-03-14T04:10:18;9.57;;;4.37;;
18265;SDS011;9259;48.194;16.322;2023-03-14T04:12:46;11.90;;;4.47;;
18265;SDS011;9259;48.194;16.322;2023-03-14T04:15:14;8.17;;;4.40;;
18265;SDS011;9259;48.194;16.322;2023-03-14T04:17:42;11.97;;;4.80;;
18265;SDS011;9259;48.194;16.322;2023-03-14T04:20:12;13.80;;;4.70;;
18265;SDS011;9259;48.194;16.322;2023-03-14T04:22:40;10.90;;;4.90;;
18265;SDS011;9259;48.194;16.322;2023-03-14T04:25:08;10.93;;;4.90;;
18265;SDS011;9259;48.194;16.322;2023-03-14T04:27:36;14.93;;;5.50;;
18265;SDS011;9259;48.194;16.322;2023-03-14T04:30:04;8.80;;;4.90;;
18265;SDS011;9259;48.194;16.322;2023-03-14T04:32:33;10.17;;;4.30;;
18265;SDS011;9259;48.194;16.322;2023-03-14T04:35:03;8.20;;;4.60;;
18265;SDS011;9259;48.194;16.322;2023-03-14T04:37:33;11.50;;;4.50;;
18265;SDS011;9259;48.194;16.322;2023-03-14T04:40:01;9.70;;;4.40;;
18265;SDS011;9259;48.194;16.322;2023-03-14T04:42:32;11.37;;;4.53;;
18265;SDS011;9259;48.194;16.322;2023-03-14T04:45:00;8.53;;;4.20;;
18265;SDS011;9259;48.194;16.322;2023-03-14T04:47:28;8.33;;;4.17;;
18265;SDS011;9259;48.194;16.322;2023-03-14T04:49:56;8.17;;;4.10;;
18265;SDS011;9259;48.194;16.322;2023-03-14T04:52:24;7.10;;;3.53;;
18265;SDS011;9259;48.194;16.322;2023-03-14T04:54:53;8.40;;;3.93;;
18265;SDS011;9259;48.194;16.322;2023-03-14T04:57:21;7.13;;;3.30;;
18265;SDS011;9259;48.194;16.322;2023-03-14T04:59:49;11.47;;;4.83;;
18265;SDS011;9259;48.194;16.322;2023-03-14T05:02:17;10.03;;;4.13;;
18265;SDS011;9259;48.194;16.322;2023-03-14T05:04:45;10.80;;;3.77;;
18265;SDS011;9259;48.194;16.322;2023-03-14T05:07:13;8.73;;;3.83;;
18265;SDS011;9259;48.194;16.322;2023-03-14T05:09:41;10.57;;;3.93;;
18265;SDS011;9259;48.194;16.322;2023-03-14T05:12:10;11.50;;;5.03;;
18265;SDS011;9259;48.194;16.322;2023-03-14T05:14:38;11.30;;;4.17;;
18265;SDS011;9259;48.194;16.322;2023-03-14T05:17:06;10.07;;;4.13;;
18265;SDS011;9259;48.194;16.322;2023-03-14T05:19:35;11.33;;;3.80;;
18265;SDS011;9259;48.194;16.322;2023-03-14T05:22:03;11.27;;;4.57;;
18265;SDS011;9259;48.194;16.322;2023-03-14T05:24:31;11.00;;;4.30;;
18265;SDS011;9259;48.194;16.322;2023-03-14T05:26:59;9.53;;;4.27;;
18265;SDS011;9259;48.194;16.322;2023-03-14T05:29:28;8.40;;;3.87;;
18265;SDS011;9259;48.194;16.322;2023-03-14T05:31:56;8.40;;;3.83;;
18265;SDS011;9259;48.194;16.322;2023-03-14T05:34:24;9.17;;;4.33;;
18265;SDS011;9259;48.194;16.322;2023-03-14T05:36:52;10.70;;;4.30;;
18265;SDS011;9259;48.194;16.322;2023-03-14T05:39:21;9.73;;;4.03;;
18265;SDS011;9259;48.194;16.322;2023-03-14T05:41:50;6.47;;;3.60;;
18265;SDS011;9259;48.194;16.322;2023-03-14T05:44:19;11.63;;;4.33;;
18265;SDS011;9259;48.194;16.322;2023-03-14T05:46:49;12.93;;;3.83;;
18265;SDS011;9259;48.194;16.322;2023-03-14T05:49:17;10.57;;;3.83;;
18265;SDS011;9259;48.194;16.322;2023-03-14T05:51:45;6.70;;;3.70;;
18265;SDS011;9259;48.194;16.322;2023-03-14T05:54:12;9.70;;;3.90;;
18265;SDS011;9259;48.194;16.322;2023-03-14T05:56:40;9.97;;;4.23;;
18265;SDS011;9259;48.194;16.322;2023-03-14T05:59:08;9.87;;;4.50;;
18265;SDS011;9259;48.194;16.322;2023-03-14T06:01:36;9.33;;;4.17;;
18265;SDS011;9259;48.194;16.322;2023-03-14T06:04:05;10.60;;;3.80;;
18265;SDS011;9259;48.194;16.322;2023-03-14T06:06:33;9.30;;;3.93;;
18265;SDS011;9259;48.194;16.322;2023-03-14T06:09:01;11.17;;;3.90;;
18265;SDS011;9259;48.194;16.322;2023-03-14T06:11:29;8.53;;;4.40;;
18265;SDS011;9259;48.194;16.322;2023-03-14T06:13:57;10.53;;;4.20;;
18265;SDS011;9259;48.194;16.322;2023-03-14T06:16:25;9.63;;;4.00;;
18265;SDS011;9259;48.194;16.322;2023-03-14T06:18:53;12.07;;;3.70;;
18265;SDS011;9259;48.194;16.322;2023-03-14T06:21:22;7.90;;;3.70;;
18265;SDS011;9259;48.194;16.322;2023-03-14T06:23:50;11.97;;;4.53;;
18265;SDS011;9259;48.194;16.322;2023-03-14T06:26:18;13.47;;;4.77;;
18265;SDS011;9259;48.194;16.322;2023-03-14T06:28:47;10.20;;;4.80;;
18265;SDS011;9259;48.194;16.322;2023-03-14T06:31:16;13.63;;;4.30;;
18265;SDS011;9259;48.194;16.322;2023-03-14T06:33:44;12.97;;;4.33;;
18265;SDS011;9259;48.194;16.322;2023-03-14T06:36:12;17.10;;;4.73;;
18265;SDS011;9259;48.194;16.322;2023-03-14T06:38:41;12.57;;;5.00;;
18265;SDS011;9259;48.194;16.322;2023-03-14T06:41:09;11.93;;;4.70;;
18265;SDS011;9259;48.194;16.322;2023-03-14T06:43:37;12.43;;;4.73;;
18265;SDS011;9259;48.194;16.322;2023-03-14T06:46:05;12.50;;;4.60;;
18265;SDS011;9259;48.194;16.322;2023-03-14T06:48:33;15.80;;;4.53;;
18265;SDS011;9259;48.194;16.322;2023-03-14T06:51:01;17.33;;;4.50;;
18265;SDS011;9259;48.194;16.322;2023-03-14T06:53:29;12.93;;;5.00;;
18265;SDS011;9259;48.194;16.322;2023-03-14T06:55:58;14.93;;;4.70;;
18265;SDS011;9259;48.194;16.322;2023-03-14T06:58:26;12.80;;;4.87;;
18265;SDS011;9259;48.194;16.322;2023-03-14T07:00:54;14.60;;;4.97;;
18265;SDS011;9259;48.194;16.322;2023-03-14T07:03:23;15.50;;;5.60;;
18265;SDS011;9259;48.194;16.322;2023-03-14T07:05:51;14.20;;;4.70;;
18265;SDS011;9259;48.194;16.322;2023-03-14T07:08:19;13.83;;;4.90;;
18265;SDS011;9259;48.194;16.322;2023-03-14T07:10:47;11.23;;;4.90;;
18265;SDS011;9259;48.194;16.322;2023-03-14T07:13:16;12.90;;;4.93;;
18265;SDS011;9259;48.194;16.322;2023-03-14T07:15:44;15.17;;;5.37;;
18265;SDS011;9259;48.194;16.322;2023-03-14T07:18:12;12.73;;;5.53;;
18265;SDS011;9259;48.194;16.322;2023-03-14T07:20:40;12.17;;;5.17;;
18265;SDS011;9259;48.194;16.322;2023-03-14T07:23:08;14.70;;;5.03;;
18265;SDS011;9259;48.194;16.322;2023-03-14T07:25:36;14.53;;;5.17;;
18265;SDS011;9259;48.194;16.322;2023-03-14T07:28:04;15.03;;;5.57;;
18265;SDS011;9259;48.194;16.322;2023-03-14T07:30:33;14.67;;;5.00;;
18265;SDS011;9259;48.194;16.322;2023-03-14T07:33:01;12.97;;;5.23;;
18265;SDS011;9259;48.194;16.322;2023-03-14T07:35:30;11.93;;;4.83;;
18265;SDS011;9259;48.194;16.322;2023-03-14T07:37:57;14.43;;;5.10;;
18265;SDS011;9259;48.194;16.322;2023-03-14T07:40:25;14.43;;;5.03;;
18265;SDS011;9259;48.194;16.322;2023-03-14T07:42:53;12.43;;;5.00;;
18265;SDS011;9259;48.194;16.322;2023-03-14T07:45:21;9.30;;;4.03;;
18265;SDS011;9259;48.194;16.322;2023-03-14T07:47:51;9.20;;;4.07;;
18265;SDS011;9259;48.194;16.322;2023-03-14T07:50:23;22.33;;;5.57;;
18265;SDS011;9259;48.194;16.322;2023-03-14T07:52:51;9.50;;;3.70;;
18265;SDS011;9259;48.194;16.322;2023-03-14T07:55:19;8.53;;;2.47;;
18265;SDS011;9259;48.194;16.322;2023-03-14T07:57:47;5.87;;;2.40;;
18265;SDS011;9259;48.194;16.322;2023-03-14T08:00:15;6.37;;;2.23;;
18265;SDS011;9259;48.194;16.322;2023-03-14T08:02:44;5.97;;;2.10;;
18265;SDS011;9259;48.194;16.322;2023-03-14T08:05:13;4.27;;;2.10;;
18265;SDS011;9259;48.194;16.322;2023-03-14T08:07:41;4.63;;;1.53;;
18265;SDS011;9259;48.194;16.322;2023-03-14T08:10:10;4.07;;;1.50;;
18265;SDS011;9259;48.194;16.322;2023-03-14T08:12:41;5.40;;;1.33;;
18265;SDS011;9259;48.194;16.322;2023-03-14T08:15:09;2.60;;;0.70;;
18265;SDS011;9259;48.194;16.322;2023-03-14T08:17:38;1.67;;;0.73;;
18265;SDS011;9259;48.194;16.322;2023-03-14T08:20:06;4.30;;;1.00;;
18265;SDS011;9259;48.194;16.322;2023-03-14T08:22:38;1.60;;;0.50;;
18265;SDS011;9259;48.194;16.322;2023-03-14T08:25:06;1.13;;;0.60;;
18265;SDS011;9259;48.194;16.322;2023-03-14T08:27:35;0.50;;;0.30;;
18265;SDS011;9259;48.194;16.322;2023-03-14T08:30:05;2.63;;;1.50;;
18265;SDS011;9259;48.194;16.322;2023-03-14T08:32:36;3.23;;;1.00;;
18265;SDS011;9259;48.194;16.322;2023-03-14T08:35:05;1.23;;;0.50;;
18265;SDS011;9259;48.194;16.322;2023-03-14T08:37:34;4.23;;;1.00;;
18265;SDS011;9259;48.194;16.322;2023-03-14T08:40:04;2.47;;;0.70;;
18265;SDS011;9259;48.194;16.322;2023-03-14T08:42:35;1.87;;;0.50;;
18265;SDS011;9259;48.194;16.322;2023-03-14T08:45:04;3.87;;;0.77;;
18265;SDS011;9259;48.194;16.322;2023-03-14T08:47:34;5.03;;;0.80;;
18265;SDS011;9259;48.194;16.322;2023-03-14T08:50:02;1.10;;;0.57;;
18265;SDS011;9259;48.194;16.322;2023-03-14T08:52:31;2.50;;;0.73;;
18265;SDS011;9259;48.194;16.322;2023-03-14T08:55:00;1.43;;;0.60;;
18265;SDS011;9259;48.194;16.322;2023-03-14T08:57:29;3.17;;;0.83;;
18265;SDS011;9259;48.194;16.322;2023-03-14T08:59:57;2.57;;;0.90;;
18265;SDS011;9259;48.194;16.322;2023-03-14T09:02:25;2.50;;;0.70;;
18265;SDS011;9259;48.194;16.322;2023-03-14T09:04:54;2.97;;;0.90;;
18265;SDS011;9259;48.194;16.322;2023-03-14T09:07:22;1.40;;;0.50;;
18265;SDS011;9259;48.194;16.322;2023-03-14T09:09:50;3.13;;;0.60;;
18265;SDS011;9259;48.194;16.322;2023-03-14T09:12:18;2.60;;;1.10;;
18265;SDS011;9259;48.194;16.322;2023-03-14T09:14:47;1.23;;;0.53;;
18265;SDS011;9259;48.194;16.322;2023-03-14T09:17:15;2.80;;;0.80;;
18265;SDS011;9259;48.194;16.322;2023-03-14T09:19:43;2.13;;;1.00;;
18265;SDS011;9259;48.194;16.322;2023-03-14T09:22:11;2.93;;;0.70;;
18265;SDS011;9259;48.194;16.322;2023-03-14T09:24:39;4.03;;;0.60;;
18265;SDS011;9259;48.194;16.322;2023-03-14T09:27:07;1.63;;;0.70;;
18265;SDS011;9259;48.194;16.322;2023-03-14T09:29:35;5.87;;;0.60;;
18265;SDS011;9259;48.194;16.322;2023-03-14T09:32:05;1.33;;;0.57;;
18265;SDS011;9259;48.194;16.322;2023-03-14T09:34:33;2.53;;;0.50;;
18265;SDS011;9259;48.194;16.322;2023-03-14T09:37:01;1.33;;;0.70;;
18265;SDS011;9259;48.194;16.322;2023-03-14T09:39:29;3.50;;;1.00;;
18265;SDS011;9259;48.194;16.322;2023-03-14T09:41:57;6.47;;;1.73;;
18265;SDS011;9259;48.194;16.322;2023-03-14T09:44:31;3.73;;;1.37;;
18265;SDS011;9259;48.194;16.322;2023-03-14T09:47:02;6.37;;;2.27;;
18265;SDS011;9259;48.194;16.322;2023-03-14T09:49:34;14.77;;;2.60;;
18265;SDS011;9259;48.194;16.322;2023-03-14T09:52:06;6.10;;;2.50;;
18265;SDS011;9259;48.194;16.322;2023-03-14T09:54:40;11.33;;;2.70;;
18265;SDS011;9259;48.194;16.322;2023-03-14T09:57:13;10.90;;;2.67;;
18265;SDS011;9259;48.194;16.322;2023-03-14T09:59:44;10.80;;;2.90;;
18265;SDS011;9259;48.194;16.322;2023-03-14T10:02:17;6.47;;;2.43;;
18265;SDS011;9259;48.194;16.322;2023-03-14T10:04:47;3.93;;;1.50;;
18265;SDS011;9259;48.194;16.322;2023-03-14T10:07:17;3.50;;;1.50;;
18265;SDS011;9259;48.194;16.322;2023-03-14T10:09:50;3.53;;;1.30;;
18265;SDS011;9259;48.194;16.322;2023-03-14T10:12:18;6.43;;;1.80;;
18265;SDS011;9259;48.194;16.322;2023-03-14T10:14:49;4.70;;;0.93;;
18265;SDS011;9259;48.194;16.322;2023-03-14T10:17:20;4.03;;;1.03;;
18265;SDS011;9259;48.194;16.322;2023-03-14T10:19:53;2.43;;;1.50;;
18265;SDS011;9259;48.194;16.322;2023-03-14T10:22:23;4.17;;;1.60;;
18265;SDS011;9259;48.194;16.322;2023-03-14T10:24:54;3.67;;;1.47;;
18265;SDS011;9259;48.194;16.322;2023-03-14T10:27:27;4.07;;;0.90;;
18265;SDS011;9259;48.194;16.322;2023-03-14T10:29:58;4.90;;;0.93;;
18265;SDS011;9259;48.194;16.322;2023-03-14T10:32:32;2.73;;;0.90;;
18265;SDS011;9259;48.194;16.322;2023-03-14T10:35:11;4.97;;;0.90;;
18265;SDS011;9259;48.194;16.322;2023-03-14T10:37:48;2.53;;;0.73;;
18265;SDS011;9259;48.194;16.322;2023-03-14T10:40:20;3.70;;;0.87;;
18265;SDS011;9259;48.194;16.322;2023-03-14T10:42:54;1.40;;;0.67;;
18265;SDS011;9259;48.194;16.322;2023-03-14T10:45:29;2.23;;;0.63;;
18265;SDS011;9259;48.194;16.322;2023-03-14T10:51:02;2.07;;;0.97;;
18265;SDS011;9259;48.194;16.322;2023-03-14T10:53:33;3.23;;;0.60;;
18265;SDS011;9259;48.194;16.322;2023-03-14T10:56:07;1.93;;;0.50;;
18265;SDS011;9259;48.194;16.322;2023-03-14T10:58:40;0.93;;;0.30;;
18265;SDS011;9259;48.194;16.322;2023-03-14T11:04:08;2.53;;;0.70;;
18265;SDS011;9259;48.194;16.322;2023-03-14T11:06:50;3.27;;;0.50;;
18265;SDS011;9259;48.194;16.322;2023-03-14T11:09:25;1.30;;;0.40;;
18265;SDS011;9259;48.194;16.322;2023-03-14T11:12:02;1.17;;;0.53;;
18265;SDS011;9259;48.194;16.322;2023-03-14T11:14:45;0.73;;;0.40;;
18265;SDS011;9259;48.194;16.322;2023-03-14T11:17:19;0.80;;;0.30;;
18265;SDS011;9259;48.194;16.322;2023-03-14T11:19:57;2.17;;;0.80;;
18265;SDS011;9259;48.194;16.322;2023-03-14T11:22:43;0.83;;;0.40;;
18265;SDS011;9259;48.194;16.322;2023-03-14T11:25:18;1.93;;;0.43;;
18265;SDS011;9259;48.194;16.322;2023-03-14T11:27:55;1.70;;;0.50;;
18265;SDS011;9259;48.194;16.322;2023-03-14T11:30:37;2.10;;;0.50;;
18265;SDS011;9259;48.194;16.322;2023-03-14T11:33:13;1.97;;;0.50;;
18265;SDS011;9259;48.194;16.322;2023-03-14T11:35:45;0.80;;;0.30;;
18265;SDS011;9259;48.194;16.322;2023-03-14T11:38:23;1.10;;;0.50;;
18265;SDS011;9259;48.194;16.322;2023-03-14T11:40:59;2.57;;;0.50;;
18265;SDS011;9259;48.194;16.322;2023-03-14T11:43:29;1.20;;;0.60;;
18265;SDS011;9259;48.194;16.322;2023-03-14T11:46:04;2.13;;;0.70;;
18265;SDS011;9259;48.194;16.322;2023-03-14T11:48:38;0.47;;;0.30;;
18265;SDS011;9259;48.194;16.322;2023-03-14T11:51:16;3.80;;;0.70;;
18265;SDS011;9259;48.194;16.322;2023-03-14T11:53:53;1.87;;;0.70;;
18265;SDS011;9259;48.194;16.322;2023-03-14T11:56:28;1.87;;;0.40;;
18265;SDS011;9259;48.194;16.322;2023-03-14T11:59:03;2.00;;;0.70;;
18265;SDS011;9259;48.194;16.322;2023-03-14T12:01:45;1.93;;;0.60;;
18265;SDS011;9259;48.194;16.322;2023-03-14T12:07:29;4.57;;;0.83;;
18265;SDS011;9259;48.194;16.322;2023-03-14T12:10:06;1.13;;;0.40;;
18265;SDS011;9259;48.194;16.322;2023-03-14T12:12:35;2.40;;;0.53;;
18265;SDS011;9259;48.194;16.322;2023-03-14T12:15:04;1.57;;;0.50;;
18265;SDS011;9259;48.194;16.322;2023-03-14T12:17:45;2.00;;;0.57;;
18265;SDS011;9259;48.194;16.322;2023-03-14T12:20:17;0.83;;;0.47;;
18265;SDS011;9259;48.194;16.322;2023-03-14T12:22:49;3.27;;;0.70;;
18265;SDS011;9259;48.194;16.322;2023-03-14T12:25:20;2.43;;;0.70;;
18265;SDS011;9259;48.194;16.322;2023-03-14T12:28:03;2.00;;;0.60;;
18265;SDS011;9259;48.194;16.322;2023-03-14T12:30:44;1.10;;;0.57;;
18265;SDS011;9259;48.194;16.322;2023-03-14T12:36:00;4.50;;;0.50;;
18265;SDS011;9259;48.194;16.322;2023-03-14T12:38:54;2.77;;;0.43;;
18265;SDS011;9259;48.194;16.322;2023-03-14T12:41:36;0.67;;;0.30;;
18265;SDS011;9259;48.194;16.322;2023-03-14T12:50:35;1.30;;;0.40;;
18265;SDS011;9259;48.194;16.322;2023-03-14T12:56:39;1.53;;;0.60;;
18265;SDS011;9259;48.194;16.322;2023-03-14T12:59:27;2.00;;;0.53;;
18265;SDS011;9259;48.194;16.322;2023-03-14T13:02:01;2.13;;;0.30;;
18265;SDS011;9259;48.194;16.322;2023-03-14T13:04:47;1.20;;;0.50;;
18265;SDS011;9259;48.194;16.322;2023-03-14T13:10:38;2.00;;;0.40;;
18265;SDS011;9259;48.194;16.322;2023-03-14T13:13:14;2.87;;;0.40;;
18265;SDS011;9259;48.194;16.322;2023-03-14T13:15:48;2.00;;;0.60;;
18265;SDS011;9259;48.194;16.322;2023-03-14T13:18:26;0.80;;;0.33;;
18265;SDS011;9259;48.194;16.322;2023-03-14T13:20:59;2.60;;;0.30;;
18265;SDS011;9259;48.194;16.322;2023-03-14T13:23:32;0.80;;;0.30;;
18265;SDS011;9259;48.194;16.322;2023-03-14T13:26:02;0.60;;;0.30;;
18265;SDS011;9259;48.194;16.322;2023-03-14T13:28:37;2.97;;;0.50;;
18265;SDS011;9259;48.194;16.322;2023-03-14T13:31:12;1.30;;;0.30;;
18265;SDS011;9259;48.194;16.322;2023-03-14T13:33:56;2.20;;;0.37;;
18265;SDS011;9259;48.194;16.322;2023-03-14T13:36:25;2.23;;;0.43;;
18265;SDS011;9259;48.194;16.322;2023-03-14T13:38:57;2.13;;;0.43;;
18265;SDS011;9259;48.194;16.322;2023-03-14T13:41:27;1.70;;;0.40;;
18265;SDS011;9259;48.194;16.322;2023-03-14T13:44:01;0.70;;;0.30;;
18265;SDS011;9259;48.194;16.322;2023-03-14T13:46:34;1.87;;;0.47;;
18265;SDS011;9259;48.194;16.322;2023-03-14T13:49:03;0.90;;;0.33;;
18265;SDS011;9259;48.194;16.322;2023-03-14T13:51:33;1.07;;;0.40;;
18265;SDS011;9259;48.194;16.322;2023-03-14T13:54:01;1.00;;;0.43;;
18265;SDS011;9259;48.194;16.322;2023-03-14T13:56:30;2.27;;;0.50;;
18265;SDS011;9259;48.194;16.322;2023-03-14T13:59:01;0.43;;;0.27;;
18265;SDS011;9259;48.194;16.322;2023-03-14T14:01:29;1.70;;;0.37;;
18265;SDS011;9259;48.194;16.322;2023-03-14T14:04:02;1.23;;;0.40;;
18265;SDS011;9259;48.194;16.322;2023-03-14T14:06:35;1.33;;;0.57;;
18265;SDS011;9259;48.194;16.322;2023-03-14T14:09:09;1.97;;;0.70;;
18265;SDS011;9259;48.194;16.322;2023-03-14T14:11:42;1.10;;;0.40;;
18265;SDS011;9259;48.194;16.322;2023-03-14T14:14:15;1.17;;;0.47;;
18265;SDS011;9259;48.194;16.322;2023-03-14T14:16:47;2.17;;;0.60;;
18265;SDS011;9259;48.194;16.322;2023-03-14T14:19:16;3.33;;;0.63;;
18265;SDS011;9259;48.194;16.322;2023-03-14T14:21:46;3.67;;;0.50;;
18265;SDS011;9259;48.194;16.322;2023-03-14T14:24:14;1.70;;;0.70;;
18265;SDS011;9259;48.194;16.322;2023-03-14T14:26:46;0.60;;;0.23;;
18265;SDS011;9259;48.194;16.322;2023-03-14T14:29:20;0.77;;;0.30;;
18265;SDS011;9259;48.194;16.322;2023-03-14T14:32:00;0.57;;;0.40;;
18265;SDS011;9259;48.194;16.322;2023-03-14T14:34:38;2.60;;;0.60;;
18265;SDS011;9259;48.194;16.322;2023-03-14T14:37:17;0.70;;;0.33;;
18265;SDS011;9259;48.194;16.322;2023-03-14T14:39:47;1.10;;;0.40;;
18265;SDS011;9259;48.194;16.322;2023-03-14T14:42:18;0.57;;;0.40;;
18265;SDS011;9259;48.194;16.322;2023-03-14T14:44:50;3.47;;;0.40;;
18265;SDS011;9259;48.194;16.322;2023-03-14T14:47:20;1.17;;;0.60;;
18265;SDS011;9259;48.194;16.322;2023-03-14T14:49:52;1.43;;;0.60;;
18265;SDS011;9259;48.194;16.322;2023-03-14T14:52:30;2.90;;;0.70;;
18265;SDS011;9259;48.194;16.322;2023-03-14T14:55:11;0.83;;;0.40;;
18265;SDS011;9259;48.194;16.322;2023-03-14T14:57:48;2.47;;;0.60;;
18265;SDS011;9259;48.194;16.322;2023-03-14T15:00:19;3.60;;;0.67;;
18265;SDS011;9259;48.194;16.322;2023-03-14T15:02:49;2.13;;;0.53;;
18265;SDS011;9259;48.194;16.322;2023-03-14T15:05:20;0.27;;;0.20;;
18265;SDS011;9259;48.194;16.322;2023-03-14T15:07:50;0.70;;;0.30;;
18265;SDS011;9259;48.194;16.322;2023-03-14T15:10:18;0.20;;;0.17;;
18265;SDS011;9259;48.194;16.322;2023-03-14T15:12:51;0.40;;;0.20;;
18265;SDS011;9259;48.194;16.322;2023-03-14T15:15:21;1.27;;;0.40;;
18265;SDS011;9259;48.194;16.322;2023-03-14T15:17:49;0.30;;;0.30;;
18265;SDS011;9259;48.194;16.322;2023-03-14T15:20:17;0.83;;;0.30;;
18265;SDS011;9259;48.194;16.322;2023-03-14T15:22:49;0.60;;;0.20;;
18265;SDS011;9259;48.194;16.322;2023-03-14T15:25:17;0.37;;;0.20;;
18265;SDS011;9259;48.194;16.322;2023-03-14T15:27:45;0.90;;;0.30;;
18265;SDS011;9259;48.194;16.322;2023-03-14T15:30:13;0.40;;;0.30;;
18265;SDS011;9259;48.194;16.322;2023-03-14T15:32:44;2.83;;;0.40;;
18265;SDS011;9259;48.194;16.322;2023-03-14T15:35:13;4.13;;;0.50;;